Time;durP1;ratioP1;P1;durP2;ratioP2;P2;SDS_P1;SDS_P2;PMS_P1;PMS_P2;Temp;Humidity;BMP_temperature;BMP_pressure;BME280_temperature;BME280_humidity;BME280_pressure;Samples;Min_cycle;Max_cycle;Signal;HPM_P1;HPM_P2
2023/07/16 00:02:06;;;;;;;8.77;3.00;;;;;;;14.59;99.18;100145.47;5060518;28;20331;-59
2023/07/16 00:04:37;;;;;;;11.30;2.60;;;;;;;14.74;100.00;100153.75;5070979;28;20408;-58
2023/07/16 00:07:11;;;;;;;7.70;2.87;;;;;;;14.92;97.53;100157.50;5060501;28;20381;-58
2023/07/16 00:09:41;;;;;;;6.40;2.80;;;;;;;14.88;97.65;100162.88;5059659;28;20310;-59
2023/07/16 00:12:12;;;;;;;7.17;2.80;;;;;;;14.82;99.32;100151.69;5069718;28;20859;-60
2023/07/16 00:14:44;;;;;;;7.20;2.27;;;;;;;14.79;98.97;100167.59;5059290;28;20384;-55
2023/07/16 00:17:14;;;;;;;9.20;2.97;;;;;;;14.68;99.06;100170.59;5069727;28;20369;-59
2023/07/16 00:19:45;;;;;;;11.33;3.03;;;;;;;14.59;100.00;100163.88;5058574;28;20305;-58
2023/07/16 00:22:15;;;;;;;6.53;2.73;;;;;;;14.65;99.77;100155.78;5069429;28;20790;-59
2023/07/16 00:24:46;;;;;;;5.10;2.53;;;;;;;14.54;100.00;100172.84;5058642;28;20278;-60
2023/07/16 00:27:17;;;;;;;4.37;2.17;;;;;;;14.52;100.00;100180.75;5069542;28;20369;-58
2023/07/16 00:29:49;;;;;;;6.63;2.97;;;;;;;14.55;100.00;100196.47;5058302;28;20393;-59
2023/07/16 00:32:20;;;;;;;5.90;3.10;;;;;;;14.60;100.00;100194.53;5069063;28;20294;-60
2023/07/16 00:34:50;;;;;;;7.33;2.90;;;;;;;14.47;100.00;100206.34;5059756;28;20713;-59
2023/07/16 00:37:20;;;;;;;6.10;2.43;;;;;;;14.49;100.00;100201.03;5071214;28;20300;-57
2023/07/16 00:39:51;;;;;;;8.00;2.80;;;;;;;14.57;100.00;100194.63;5060961;28;20368;-60
2023/07/16 00:42:21;;;;;;;8.43;3.20;;;;;;;14.51;100.00;100189.56;5071678;28;20044;-58
2023/07/16 00:44:53;;;;;;;7.57;3.03;;;;;;;14.49;100.00;100191.38;5059552;28;20270;-54
2023/07/16 00:47:24;;;;;;;8.27;3.65;;;;;;;14.55;100.00;100190.31;5070252;28;20731;-59
2023/07/16 00:49:55;;;;;;;7.87;3.73;;;;;;;14.63;100.00;100178.66;5061451;28;20043;-60
2023/07/16 00:52:28;;;;;;;5.50;2.90;;;;;;;14.83;100.00;100190.25;5070124;28;21048;-58
2023/07/16 00:54:59;;;;;;;6.10;3.07;;;;;;;14.81;100.00;100186.81;5058851;28;20289;-57
2023/07/16 00:57:31;;;;;;;7.13;3.33;;;;;;;14.77;100.00;100190.44;5071898;28;20289;-56
2023/07/16 01:00:06;;;;;;;7.33;3.20;;;;;;;14.69;100.00;100187.25;5059850;28;20274;-60
2023/07/16 01:02:37;;;;;;;6.77;2.97;;;;;;;14.77;100.00;100185.19;5070157;28;20293;-56
2023/07/16 01:05:08;;;;;;;10.63;2.90;;;;;;;14.84;100.00;100168.28;5058190;28;20282;-56
2023/07/16 01:07:43;;;;;;;13.73;3.40;;;;;;;14.86;100.00;100169.09;5068392;28;20270;-60
2023/07/16 01:10:14;;;;;;;10.57;3.40;;;;;;;15.00;100.00;100166.84;5060941;28;20285;-58
2023/07/16 01:12:45;;;;;;;6.17;2.90;;;;;;;15.28;100.00;100160.56;5063018;28;20297;-58
2023/07/16 01:15:17;;;;;;;7.17;2.27;;;;;;;15.53;98.28;100150.81;5075160;28;20335;-57
2023/07/16 01:17:48;;;;;;;4.20;2.40;;;;;;;15.77;99.02;100158.69;5062989;28;20340;-61
2023/07/16 01:20:18;;;;;;;7.23;2.70;;;;;;;15.66;96.86;100160.88;5074106;28;20645;-58
2023/07/16 01:23:12;;;;;;;3.73;2.50;;;;;;;15.57;98.58;100177.88;5061214;28;20756;-60
2023/07/16 01:26:01;;;;;;;4.53;1.90;;;;;;;15.71;97.33;100164.22;5064307;28;20313;-60
2023/07/16 01:29:09;;;;;;;8.88;2.60;;;;;;;16.01;98.30;100166.56;5073291;28;20274;-60
2023/07/16 01:31:41;;;;;;;3.03;2.27;;;;;;;16.14;95.27;100168.59;5073027;28;20051;-59
2023/07/16 01:34:13;;;;;;;6.20;2.10;;;;;;;16.22;95.93;100155.09;5062949;28;20723;-59
2023/07/16 01:36:45;;;;;;;6.50;2.60;;;;;;;16.13;94.16;100166.06;5063203;28;20289;-60
2023/07/16 01:39:17;;;;;;;5.77;2.60;;;;;;;16.10;94.48;100155.59;5073248;28;20672;-58
2023/07/16 01:41:47;;;;;;;5.63;2.27;;;;;;;16.04;93.33;100164.63;5060820;28;20321;-59
2023/07/16 01:44:19;;;;;;;4.53;2.63;;;;;;;15.88;94.53;100169.66;5072920;28;20289;-57
2023/07/16 01:47:06;;;;;;;5.47;2.20;;;;;;;15.85;94.65;100163.66;5062262;28;20290;-59
2023/07/16 01:49:37;;;;;;;4.53;2.57;;;;;;;15.95;95.92;100160.59;5072335;28;20281;-59
2023/07/16 01:52:09;;;;;;;5.27;2.90;;;;;;;15.73;95.68;100154.47;5062472;28;20317;-61
2023/07/16 01:54:40;;;;;;;4.77;2.70;;;;;;;15.85;95.75;100161.91;5069259;28;20288;-59
2023/07/16 01:57:10;;;;;;;3.47;2.30;;;;;;;15.98;95.51;100161.41;5072364;28;20666;-59
2023/07/16 01:59:42;;;;;;;4.00;2.63;;;;;;;16.12;96.03;100164.31;5063013;28;20282;-59
2023/07/16 02:02:13;;;;;;;4.10;2.00;;;;;;;16.35;93.97;100166.03;5071822;28;20803;-62
2023/07/16 02:04:44;;;;;;;4.57;2.50;;;;;;;16.42;91.78;100183.28;5061998;28;20289;-60
2023/07/16 02:07:14;;;;;;;5.73;1.90;;;;;;;16.57;93.52;100181.78;5069088;28;20297;-58
2023/07/16 02:09:45;;;;;;;5.50;2.10;;;;;;;16.57;91.35;100192.34;5066749;28;20321;-59
2023/07/16 02:12:16;;;;;;;5.77;1.87;;;;;;;16.26;91.60;100179.59;5079944;28;20728;-60
2023/07/16 02:14:48;;;;;;;4.70;2.13;;;;;;;16.02;93.26;100174.38;5068276;28;20317;-61
2023/07/16 02:17:18;;;;;;;5.10;2.23;;;;;;;15.80;94.21;100189.31;5082548;28;20291;-62
2023/07/16 02:19:49;;;;;;;5.43;2.40;;;;;;;15.79;95.01;100187.63;5067160;28;20273;-62
2023/07/16 02:22:20;;;;;;;9.93;2.20;;;;;;;15.76;94.64;100185.97;5072600;28;20286;-56
2023/07/16 02:24:51;;;;;;;4.70;2.33;;;;;;;15.72;95.17;100192.25;5061382;28;20779;-62
2023/07/16 02:27:22;;;;;;;8.13;2.17;;;;;;;15.57;95.26;100192.81;5071497;28;20629;-59
2023/07/16 02:29:54;;;;;;;5.07;2.07;;;;;;;15.61;95.76;100179.47;5059833;28;20286;-58
2023/07/16 02:32:25;;;;;;;4.07;1.57;;;;;;;15.65;94.62;100172.31;5072942;28;20285;-61
2023/07/16 02:34:55;;;;;;;7.87;2.10;;;;;;;15.67;95.52;100157.31;5059016;28;20269;-60
2023/07/16 02:37:26;;;;;;;5.37;2.00;;;;;;;15.66;94.55;100155.59;5071279;28;20265;-60
2023/07/16 02:39:56;;;;;;;3.43;1.90;;;;;;;15.60;96.00;100158.44;5061149;28;20313;-61
2023/07/16 02:42:27;;;;;;;5.53;2.10;;;;;;;15.67;95.88;100162.56;5072327;28;20270;-61
2023/07/16 02:44:59;;;;;;;2.50;1.67;;;;;;;15.99;95.23;100153.41;5061488;28;20834;-61
2023/07/16 02:47:30;;;;;;;4.13;2.40;;;;;;;16.29;93.37;100150.44;5070697;28;20294;-57
2023/07/16 02:50:01;;;;;;;7.33;2.27;;;;;;;16.49;91.62;100154.88;5060994;28;20282;-58
2023/07/16 02:52:31;;;;;;;9.30;3.10;;;;;;;16.55;92.50;100154.63;5071469;28;20290;-61
2023/07/16 02:55:02;;;;;;;8.27;2.57;;;;;;;16.24;93.04;100171.72;5060843;28;20281;-60
2023/07/16 02:57:33;;;;;;;6.10;2.17;;;;;;;16.15;92.98;100153.69;5070725;28;20285;-62
2023/07/16 03:00:07;;;;;;;5.13;2.00;;;;;;;16.36;93.49;100158.03;5059412;28;20309;-59
2023/07/16 03:02:38;;;;;;;6.90;2.70;;;;;;;16.61;93.94;100162.28;5071619;28;20301;-58
2023/07/16 03:05:09;;;;;;;6.60;2.83;;;;;;;16.85;91.89;100159.50;5060290;28;20758;-58
2023/07/16 03:07:40;;;;;;;12.50;2.57;;;;;;;17.00;92.17;100165.00;5068302;28;20317;-58
2023/07/16 03:10:11;;;;;;;5.37;2.40;;;;;;;16.74;88.60;100174.00;5069721;28;20778;-58
2023/07/16 03:12:42;;;;;;;7.70;2.37;;;;;;;16.70;90.77;100169.81;5061549;28;20623;-58
2023/07/16 03:15:14;;;;;;;6.57;2.60;;;;;;;16.49;91.17;100168.06;5070356;28;20277;-59
2023/07/16 03:17:45;;;;;;;7.97;3.03;;;;;;;16.35;91.04;100164.25;5059558;28;20281;-58
2023/07/16 03:20:15;;;;;;;7.80;2.90;;;;;;;16.36;93.16;100167.72;5071266;28;20600;-59
2023/07/16 03:22:46;;;;;;;3.93;2.30;;;;;;;16.65;91.65;100163.88;5059445;28;20317;-59
2023/07/16 03:25:17;;;;;;;5.37;2.67;;;;;;;17.03;91.27;100164.00;5070554;28;20621;-60
2023/07/16 03:27:47;;;;;;;5.47;2.53;;;;;;;17.23;86.94;100163.94;5060921;28;20368;-59
2023/07/16 03:30:19;;;;;;;4.77;2.23;;;;;;;17.40;88.24;100180.81;5070796;28;20592;-59
2023/07/16 03:32:50;;;;;;;7.97;2.40;;;;;;;17.40;87.03;100167.63;5058225;28;20326;-59
2023/07/16 03:35:22;;;;;;;6.43;2.40;;;;;;;16.99;86.19;100178.25;5071009;28;20289;-62
2023/07/16 03:37:54;;;;;;;4.73;2.13;;;;;;;16.72;90.02;100175.84;5059270;28;20293;-61
2023/07/16 03:40:27;;;;;;;5.57;2.53;;;;;;;16.46;90.68;100173.47;5071497;28;20535;-60
2023/07/16 03:42:57;;;;;;;8.13;2.50;;;;;;;16.43;91.14;100189.44;5060816;28;20285;-58
2023/07/16 03:45:29;;;;;;;6.30;2.20;;;;;;;16.38;90.70;100190.47;5070103;28;20919;-61
2023/07/16 03:48:00;;;;;;;6.40;2.43;;;;;;;16.12;91.49;100186.25;5061716;28;20291;-61
2023/07/16 03:50:31;;;;;;;6.13;2.77;;;;;;;16.09;91.84;100185.53;5071276;28;20285;-58
2023/07/16 03:53:03;;;;;;;7.33;3.40;;;;;;;15.94;93.40;100193.13;5060039;28;20573;-61
2023/07/16 03:55:33;;;;;;;23.73;3.20;;;;;;;16.03;93.47;100185.81;5070144;28;20356;-61
2023/07/16 03:58:04;;;;;;;7.00;2.30;;;;;;;16.19;92.49;100197.41;5059824;28;20273;-60
2023/07/16 04:00:38;;;;;;;10.57;2.80;;;;;;;16.51;92.99;100197.88;5068816;28;20317;-61
2023/07/16 04:03:08;;;;;;;6.90;3.00;;;;;;;16.60;90.36;100202.78;5060416;28;20745;-61
2023/07/16 04:05:40;;;;;;;15.40;3.30;;;;;;;16.68;90.42;100195.38;5067166;28;20692;-60
2023/07/16 04:08:10;;;;;;;5.80;2.10;;;;;;;16.54;89.54;100200.38;5069718;28;20411;-57
2023/07/16 04:10:40;;;;;;;7.67;2.53;;;;;;;16.38;89.83;100193.13;5061543;28;20376;-62
2023/07/16 04:13:15;;;;;;;5.23;2.63;;;;;;;16.03;90.99;100155.03;5070763;28;20317;-60
2023/07/16 04:15:47;;;;;;;11.60;3.47;;;;;;;16.34;91.98;100196.78;5059727;28;20293;-62
2023/07/16 04:18:18;;;;;;;6.50;2.83;;;;;;;16.38;92.07;100208.09;5069392;28;20273;-62
2023/07/16 04:20:48;;;;;;;9.07;2.53;;;;;;;16.33;91.34;100199.50;5059696;28;20289;-56
2023/07/16 04:23:21;;;;;;;7.37;2.80;;;;;;;16.39;92.92;100194.81;5070694;28;20367;-60
2023/07/16 04:25:54;;;;;;;6.30;2.77;;;;;;;16.54;93.11;100195.09;5060012;28;20748;-58
2023/07/16 04:28:25;;;;;;;6.20;2.90;;;;;;;16.33;92.29;100216.19;5071034;28;20309;-59
2023/07/16 04:30:57;;;;;;;8.43;3.20;;;;;;;16.23;93.16;100214.00;5058713;28;20322;-62
2023/07/16 04:33:27;;;;;;;7.20;3.57;;;;;;;16.08;93.43;100215.47;5069445;28;20293;-58
2023/07/16 04:35:58;;;;;;;10.73;3.03;;;;;;;16.07;94.15;100219.00;5058380;28;20285;-61
2023/07/16 04:38:28;;;;;;;6.23;3.00;;;;;;;15.93;92.34;100206.38;5068103;28;20276;-60
2023/07/16 04:40:59;;;;;;;3.93;2.93;;;;;;;16.18;91.47;100203.63;5058636;28;20794;-62
2023/07/16 04:43:30;;;;;;;9.73;3.20;;;;;;;16.62;92.83;100208.81;5070404;28;20284;-62
2023/07/16 04:46:02;;;;;;;7.17;3.10;;;;;;;16.64;89.04;100204.34;5063192;28;20291;-59
2023/07/16 04:48:32;;;;;;;5.17;2.90;;;;;;;16.69;90.34;100191.81;5072466;28;20294;-61
2023/07/16 04:51:03;;;;;;;7.70;3.47;;;;;;;16.58;88.82;100186.16;5062559;28;20450;-62
2023/07/16 04:53:33;;;;;;;8.97;3.07;;;;;;;16.48;90.25;100193.59;5072266;28;21254;-61
2023/07/16 04:56:04;;;;;;;9.00;2.97;;;;;;;16.43;88.94;100210.53;5062291;28;20346;-59
2023/07/16 04:58:35;;;;;;;8.43;2.87;;;;;;;16.28;89.88;100204.97;5073248;28;20269;-61
2023/07/16 05:01:07;;;;;;;5.17;2.87;;;;;;;16.21;90.46;100216.69;5063373;28;20781;-59
2023/07/16 05:03:38;;;;;;;5.70;2.40;;;;;;;16.00;90.58;100212.25;5072424;28;20305;-61
2023/07/16 05:06:09;;;;;;;4.87;2.90;;;;;;;15.81;92.76;100212.97;5063249;28;20282;-60
2023/07/16 05:08:40;;;;;;;4.50;2.60;;;;;;;15.79;92.91;100209.53;5072001;28;20553;-60
2023/07/16 05:11:10;;;;;;;5.30;2.60;;;;;;;15.87;93.34;100212.72;5073864;28;20869;-60
2023/07/16 05:13:42;;;;;;;5.83;2.40;;;;;;;15.86;93.75;100211.03;5064112;28;20346;-62
2023/07/16 05:16:16;;;;;;;7.77;2.90;;;;;;;15.87;94.06;100212.72;5072997;28;20600;-64
2023/07/16 05:18:47;;;;;;;5.43;2.60;;;;;;;15.90;93.36;100215.28;5062214;28;20747;-62
2023/07/16 05:21:23;;;;;;;7.53;2.20;;;;;;;15.81;92.16;100191.91;5073454;28;20384;-61
2023/07/16 05:23:55;;;;;;;4.73;2.07;;;;;;;15.97;91.91;100189.50;5060783;28;20644;-61
2023/07/16 05:26:26;;;;;;;6.20;2.67;;;;;;;16.02;92.66;100194.59;5072648;28;20274;-61
2023/07/16 05:28:57;;;;;;;4.47;1.87;;;;;;;16.13;93.09;100192.41;5063597;28;20289;-62
2023/07/16 05:31:30;;;;;;;4.87;2.20;;;;;;;16.41;92.61;100197.41;5073637;28;20743;-60
2023/07/16 05:34:00;;;;;;;3.00;1.80;;;;;;;16.46;90.25;100199.84;5064115;28;20363;-60
2023/07/16 05:36:31;;;;;;;4.97;2.20;;;;;;;16.38;92.21;100193.13;5072127;28;20811;-58
2023/07/16 05:39:02;;;;;;;6.03;1.90;;;;;;;16.39;90.29;100205.38;5083427;28;20329;-57
2023/07/16 05:41:32;;;;;;;3.90;2.00;;;;;;;16.35;91.12;100203.78;5073367;28;20282;-61
2023/07/16 05:44:03;;;;;;;10.67;2.27;;;;;;;16.55;89.81;100188.94;5061326;28;20296;-60
2023/07/16 05:46:35;;;;;;;2.50;1.40;;;;;;;16.78;88.96;100149.25;5073063;28;20269;-59
2023/07/16 05:49:06;;;;;;;3.37;1.60;;;;;;;17.06;87.37;100169.13;5062338;28;20678;-61
2023/07/16 05:51:39;;;;;;;4.70;2.13;;;;;;;17.17;86.88;100182.72;5071784;28;20638;-62
2023/07/16 05:54:13;;;;;;;4.60;2.20;;;;;;;17.03;88.51;100190.41;5061770;28;20378;-59
2023/07/16 05:56:45;;;;;;;5.90;1.50;;;;;;;16.95;88.05;100172.25;5060751;28;20375;-63
2023/07/16 05:59:16;;;;;;;3.90;1.60;;;;;;;16.81;88.23;100183.41;5055016;28;20625;-59
2023/07/16 06:01:48;;;;;;;8.17;2.30;;;;;;;16.54;89.57;100192.47;5062106;28;20297;-59
2023/07/16 06:04:19;;;;;;;3.20;1.50;;;;;;;16.46;90.29;100199.84;5071628;28;20294;-60
2023/07/16 06:06:50;;;;;;;4.80;1.80;;;;;;;16.50;91.72;100201.41;5060661;28;20302;-61
2023/07/16 06:09:25;;;;;;;4.57;1.70;;;;;;;16.35;91.52;100222.25;5072399;28;20289;-61
2023/07/16 06:11:55;;;;;;;5.23;2.07;;;;;;;16.28;91.83;100207.59;5061532;28;20325;-58
2023/07/16 06:14:26;;;;;;;6.23;2.03;;;;;;;16.10;93.03;100203.06;5072344;28;20315;-57
2023/07/16 06:16:58;;;;;;;5.37;2.40;;;;;;;16.00;93.48;100196.44;5061586;28;20728;-60
2023/07/16 06:19:29;;;;;;;5.07;1.60;;;;;;;15.87;93.77;100202.19;5073386;28;20779;-59
2023/07/16 06:22:00;;;;;;;4.43;1.67;;;;;;;15.92;94.63;100216.03;5062624;28;20864;-59
2023/07/16 06:24:30;;;;;;;5.60;1.93;;;;;;;16.17;94.04;100196.63;5072890;28;20355;-61
2023/07/16 06:27:01;;;;;;;6.23;2.03;;;;;;;16.54;92.91;100203.03;5061332;28;20359;-56
2023/07/16 06:29:32;;;;;;;4.23;1.80;;;;;;;16.65;91.13;100200.81;5072054;28;20368;-60
2023/07/16 06:32:04;;;;;;;3.93;2.00;;;;;;;16.53;88.86;100222.41;5061356;28;20265;-59
2023/07/16 06:34:35;;;;;;;3.87;1.90;;;;;;;16.27;90.34;100216.41;5071151;28;20366;-63
2023/07/16 06:37:06;;;;;;;4.33;2.00;;;;;;;16.16;91.03;100208.94;5061767;28;20318;-60
2023/07/16 06:39:37;;;;;;;3.37;2.40;;;;;;;15.90;91.87;100228.44;5071064;28;20330;-63
2023/07/16 06:42:08;;;;;;;6.73;2.20;;;;;;;15.79;92.50;100235.03;5061069;28;20604;-56
2023/07/16 06:44:39;;;;;;;2.67;1.73;;;;;;;15.86;92.36;100237.38;5071563;28;21533;-62
2023/07/16 06:47:11;;;;;;;6.73;2.43;;;;;;;15.79;91.94;100246.44;5060257;28;20331;-61
2023/07/16 06:49:42;;;;;;;4.87;1.93;;;;;;;15.82;92.40;100246.31;5061785;28;20288;-59
2023/07/16 06:52:21;;;;;;;5.20;1.70;;;;;;;15.70;92.80;100246.75;5071859;28;20323;-60
2023/07/16 06:54:51;;;;;;;;;;;;;;;15.54;92.03;100239.41;5061692;28;20381;-59
2023/07/16 06:57:22;;;;;;;3.20;1.60;;;;;;;15.38;93.70;100240.91;5072165;28;19959;-60
2023/07/16 06:59:52;;;;;;;2.40;1.50;;;;;;;15.30;94.74;100259.63;5061998;28;20976;-60
2023/07/16 07:02:29;;;;;;;6.30;1.70;;;;;;;14.89;95.37;100221.59;5071391;28;20620;-62
2023/07/16 07:04:59;;;;;;;1.83;1.33;;;;;;;14.98;96.48;100247.59;5060625;28;20683;-59
2023/07/16 07:07:30;;;;;;;5.07;1.80;;;;;;;15.02;97.14;100243.94;5070154;28;20779;-62
2023/07/16 07:10:01;;;;;;;2.87;1.40;;;;;;;15.15;96.03;100233.84;5060978;28;21389;-60
2023/07/16 07:12:36;;;;;;;5.03;1.60;;;;;;;15.27;96.81;100240.44;5071070;28;20802;-63
2023/07/16 07:15:09;;;;;;;2.10;1.60;;;;;;;15.38;95.20;100251.44;5060752;28;20285;-62
2023/07/16 07:17:42;;;;;;;4.90;1.83;;;;;;;15.37;95.21;100239.19;5068100;28;20281;-62
2023/07/16 07:20:15;;;;;;;3.47;1.53;;;;;;;15.22;95.46;100237.09;5071079;28;20274;-61
2023/07/16 07:22:46;;;;;;;2.90;1.40;;;;;;;15.14;96.46;100234.75;5060510;28;20359;-61
2023/07/16 07:25:17;;;;;;;2.10;1.50;;;;;;;15.00;96.83;100240.50;5071128;28;20306;-60
2023/07/16 07:27:47;;;;;;;2.53;1.40;;;;;;;14.92;97.80;100239.91;5060166;28;20293;-61
2023/07/16 07:30:18;;;;;;;2.27;1.53;;;;;;;14.88;97.78;100222.53;5069961;28;20300;-60
2023/07/16 07:32:50;;;;;;;4.67;1.80;;;;;;;14.90;98.61;100225.94;5059873;28;20620;-62
2023/07/16 07:35:21;;;;;;;3.17;1.50;;;;;;;14.91;98.39;100227.66;5101017;28;20278;-62
2023/07/16 07:37:52;;;;;;;4.17;1.70;;;;;;;14.82;98.53;100235.88;5070875;28;20365;-63
2023/07/16 07:40:22;;;;;;;2.47;1.63;;;;;;;14.79;98.55;100235.97;5073472;28;20331;-62
2023/07/16 07:42:53;;;;;;;4.90;1.37;;;;;;;14.66;99.10;100236.41;5095162;28;20283;-62
2023/07/16 07:45:25;;;;;;;4.60;1.40;;;;;;;14.66;99.87;100246.91;5094338;28;20274;-62
2023/07/16 07:47:57;;;;;;;4.13;1.40;;;;;;;14.60;99.54;100236.63;5094155;28;20461;-63
2023/07/16 07:50:29;;;;;;;6.07;1.50;;;;;;;14.58;100.00;100232.31;5094554;28;20271;-63
2023/07/16 07:52:59;;;;;;;2.37;1.30;;;;;;;14.43;100.00;100228.41;5094305;28;20282;-63
2023/07/16 07:55:30;;;;;;;3.50;1.13;;;;;;;14.34;100.00;100233.94;5093623;28;20321;-62
2023/07/16 07:58:00;;;;;;;2.00;1.30;;;;;;;14.33;100.00;100235.72;5083057;28;20283;-61
2023/07/16 08:00:31;;;;;;;3.97;1.80;;;;;;;14.24;100.00;100231.59;5070946;28;20280;-55
2023/07/16 08:03:04;;;;;;;3.07;1.30;;;;;;;14.20;100.00;100224.75;5059410;28;20301;-57
2023/07/16 08:05:34;;;;;;;4.60;2.20;;;;;;;14.13;100.00;100230.25;5071401;28;20645;-62
2023/07/16 08:08:06;;;;;;;6.27;2.40;;;;;;;14.08;100.00;100233.00;5058993;28;20866;-58
2023/07/16 08:10:36;;;;;;;6.40;2.40;;;;;;;14.05;100.00;100232.22;5070672;28;20404;-58
2023/07/16 08:13:07;;;;;;;6.67;2.20;;;;;;;13.98;100.00;100250.81;5059995;28;21686;-59
2023/07/16 08:15:37;;;;;;;7.50;2.20;;;;;;;13.90;100.00;100254.56;5072169;28;20321;-59
2023/07/16 08:18:10;;;;;;;5.63;2.38;;;;;;;13.85;100.00;100241.56;5059666;28;20285;-61
2023/07/16 08:20:41;;;;;;;5.63;2.23;;;;;;;13.65;100.00;100239.53;5061805;28;20074;-60
2023/07/16 08:23:11;;;;;;;4.70;2.80;;;;;;;13.68;100.00;100255.22;5069821;28;20285;-60
2023/07/16 08:25:44;;;;;;;10.05;2.90;;;;;;;13.75;100.00;100262.03;5059993;28;20110;-60
2023/07/16 08:28:15;;;;;;;9.15;2.95;;;;;;;13.67;100.00;100269.25;5069795;28;20450;-62
2023/07/16 08:30:49;;;;;;;5.60;3.08;;;;;;;13.58;100.00;100269.53;5059428;28;20490;-60
2023/07/16 08:33:21;;;;;;;37.45;3.72;;;;;;;13.51;100.00;100275.84;5071998;28;20052;-62
2023/07/16 08:35:51;;;;;;;10.70;3.80;;;;;;;13.55;100.00;100285.34;5059173;28;20044;-61
2023/07/16 08:38:23;;;;;;;6.45;3.55;;;;;;;13.50;100.00;100282.00;5070570;28;20494;-62
2023/07/16 08:40:53;;;;;;;6.10;3.47;;;;;;;13.46;100.00;100285.63;5060234;28;20483;-59
2023/07/16 08:43:25;;;;;;;13.50;4.28;;;;;;;13.39;100.00;100284.91;5070312;28;20511;-62
2023/07/16 08:45:56;;;;;;;10.65;4.25;;;;;;;13.32;100.00;100281.59;5060986;28;20117;-58
2023/07/16 08:48:30;;;;;;;11.52;5.38;;;;;;;13.36;100.00;100280.63;5069840;28;20047;-61
2023/07/16 08:51:04;;;;;;;7.78;3.90;;;;;;;13.42;100.00;100269.09;5060231;28;20052;-57
2023/07/16 08:53:34;;;;;;;6.33;3.10;;;;;;;13.40;100.00;100281.38;5071110;28;20066;-58
2023/07/16 08:56:05;;;;;;;6.30;3.53;;;;;;;13.19;100.00;100240.81;5058299;28;20726;-62
2023/07/16 08:58:37;;;;;;;6.18;3.30;;;;;;;13.41;100.00;100271.78;5070722;28;20036;-62
2023/07/16 09:01:08;;;;;;;8.48;3.90;;;;;;;13.35;100.00;100275.41;5060020;28;20050;-60
2023/07/16 09:03:41;;;;;;;9.18;3.72;;;;;;;13.36;100.00;100283.25;5070869;28;20224;-61
2023/07/16 09:06:12;;;;;;;6.28;4.00;;;;;;;13.41;100.00;100303.25;5059850;28;20048;-62
2023/07/16 09:08:45;;;;;;;6.70;3.75;;;;;;;13.34;100.00;100303.41;5059407;28;20324;-62
2023/07/16 09:11:20;;;;;;;9.05;4.18;;;;;;;13.26;100.00;100302.75;5069127;28;20413;-58
2023/07/16 09:13:52;;;;;;;11.27;4.00;;;;;;;13.03;100.00;100281.47;5076026;28;20466;-63
2023/07/16 09:16:25;;;;;;;6.57;4.00;;;;;;;13.16;100.00;100309.13;5091191;28;20047;-62
2023/07/16 09:19:18;;;;;;;6.68;3.78;;;;;;;12.93;100.00;100276.50;5059642;28;20382;-60
2023/07/16 09:21:52;;;;;;;8.20;4.05;;;;;;;13.14;100.00;100310.94;5057887;28;20050;-60
2023/07/16 09:24:26;;;;;;;7.75;3.90;;;;;;;13.15;100.00;100297.78;5084615;28;20047;-60
2023/07/16 09:26:57;;;;;;;6.95;4.45;;;;;;;13.11;100.00;100311.00;5065453;28;20055;-61
2023/07/16 09:29:29;;;;;;;6.88;4.40;;;;;;;13.17;100.00;100305.59;5102200;28;20043;-61
2023/07/16 09:32:04;;;;;;;9.27;4.35;;;;;;;13.20;100.00;100309.91;5112763;28;20462;-61
2023/07/16 09:34:41;;;;;;;9.95;4.50;;;;;;;13.20;100.00;100310.75;5108679;28;20388;-62
2023/07/16 09:37:15;;;;;;;9.20;4.32;;;;;;;13.19;100.00;100303.78;5094267;28;20051;-61
2023/07/16 09:39:49;;;;;;;8.38;4.68;;;;;;;13.18;100.00;100309.97;5072424;28;20400;-61
2023/07/16 09:42:23;;;;;;;9.85;4.63;;;;;;;13.14;100.00;100308.31;5095326;28;20046;-62
2023/07/16 09:44:59;;;;;;;8.63;4.63;;;;;;;13.15;100.00;100323.13;5079838;28;20046;-62
2023/07/16 09:47:31;;;;;;;11.57;5.97;;;;;;;13.11;100.00;100329.38;5088254;28;20457;-61
2023/07/16 09:50:04;;;;;;;9.65;5.70;;;;;;;13.09;100.00;100324.16;5066498;28;20070;-58
2023/07/16 09:52:36;;;;;;;11.35;5.93;;;;;;;13.07;100.00;100319.84;5078308;28;20036;-61
2023/07/16 09:55:10;;;;;;;8.68;5.22;;;;;;;12.98;100.00;100312.22;5064308;28;20462;-62
2023/07/16 09:57:45;;;;;;;8.70;5.00;;;;;;;13.02;100.00;100321.75;5070685;28;20044;-61
2023/07/16 10:00:20;;;;;;;11.27;5.72;;;;;;;13.05;100.00;100319.88;5078862;28;20040;-62
2023/07/16 10:02:53;;;;;;;14.18;5.70;;;;;;;13.03;100.00;100323.44;5080228;28;20078;-62
2023/07/16 10:05:29;;;;;;;7.68;4.78;;;;;;;12.98;100.00;100326.22;5077786;28;20458;-62
2023/07/16 10:08:02;;;;;;;10.43;5.60;;;;;;;12.93;100.00;100334.19;5063258;28;20121;-62
2023/07/16 10:10:41;;;;;;;8.27;5.50;;;;;;;12.92;100.00;100323.72;5077420;28;20151;-62
2023/07/16 10:13:15;;;;;;;12.15;6.10;;;;;;;12.78;100.00;100310.97;5075636;28;20146;-62
2023/07/16 10:15:57;;;;;;;10.77;5.32;;;;;;;12.63;100.00;100292.97;5070679;28;20032;-63
2023/07/16 10:18:34;;;;;;;15.60;6.50;;;;;;;12.63;100.00;100304.34;5083367;28;20131;-62
2023/07/16 10:21:09;;;;;;;10.32;6.18;;;;;;;12.73;100.00;100331.19;5068742;28;20132;-62
2023/07/16 10:23:41;;;;;;;12.80;6.20;;;;;;;12.65;100.00;100330.50;5097818;28;20339;-62
2023/07/16 10:26:17;;;;;;;11.63;6.55;;;;;;;12.56;100.00;100322.88;5091959;28;20396;-62
2023/07/16 10:28:50;;;;;;;13.32;6.53;;;;;;;12.54;100.00;100340.41;5083700;28;20139;-62
2023/07/16 10:31:24;;;;;;;14.75;6.90;;;;;;;12.49;100.00;100330.88;5093796;28;20058;-63
2023/07/16 10:34:02;;;;;;;13.13;7.15;;;;;;;12.50;100.00;100335.22;5082772;28;20039;-63
2023/07/16 10:36:40;;;;;;;14.05;6.75;;;;;;;12.32;100.00;100316.44;5082888;28;20067;-63
2023/07/16 10:39:12;;;;;;;13.27;6.60;;;;;;;12.41;100.00;100340.66;5073127;28;20116;-63
2023/07/16 10:41:46;;;;;;;16.25;7.50;;;;;;;12.47;100.00;100351.00;5063562;28;20425;-62
2023/07/16 10:44:18;;;;;;;11.98;6.80;;;;;;;12.41;100.00;100345.91;5083672;28;20035;-63
2023/07/16 10:46:51;;;;;;;13.30;7.50;;;;;;;12.41;100.00;100351.16;5094169;28;20040;-63
2023/07/16 10:49:29;;;;;;;17.25;8.10;;;;;;;12.34;100.00;100353.94;5095148;28;20055;-63
2023/07/16 10:52:04;;;;;;;16.35;7.93;;;;;;;12.21;100.00;100342.88;5095270;28;20052;-63
2023/07/16 10:54:37;;;;;;;17.55;8.95;;;;;;;12.34;100.00;100356.56;5095302;28;20478;-64
2023/07/16 10:57:09;;;;;;;13.90;7.82;;;;;;;12.34;100.00;100369.66;5099521;28;20393;-63
2023/07/16 10:59:42;;;;;;;14.70;7.15;;;;;;;11.86;100.00;100306.06;5073403;28;20079;-62
2023/07/16 11:02:14;;;;;;;14.35;7.70;;;;;;;12.25;100.00;100365.47;5093285;28;20048;-63
2023/07/16 11:04:48;;;;;;;13.88;7.90;;;;;;;11.92;100.00;100331.25;5082829;28;20043;-64
2023/07/16 11:07:24;;;;;;;18.48;7.25;;;;;;;12.13;100.00;100373.59;5092683;28;20039;-63
2023/07/16 11:09:57;;;;;;;15.68;7.97;;;;;;;12.02;100.00;100366.81;5115254;28;20519;-63
2023/07/16 11:12:29;;;;;;;19.50;6.88;;;;;;;12.11;100.00;100372.78;5100598;28;20040;-63
2023/07/16 11:15:02;;;;;;;14.95;8.00;;;;;;;12.13;100.00;100378.84;5070700;28;20054;-63
2023/07/16 11:17:34;;;;;;;15.75;7.68;;;;;;;12.18;100.00;100387.44;5087656;28;20040;-62
2023/07/16 11:20:11;;;;;;;13.77;7.03;;;;;;;12.15;100.00;100391.00;5101663;28;20040;-63
2023/07/16 11:22:46;;;;;;;16.42;7.72;;;;;;;12.11;100.00;100383.25;5060499;28;20082;-62
2023/07/16 11:25:22;;;;;;;20.67;7.65;;;;;;;12.06;100.00;100378.97;5071736;28;20040;-61
2023/07/16 11:28:03;;;;;;;12.13;6.70;;;;;;;12.03;100.00;100379.03;5059294;28;20142;-60
2023/07/16 11:30:38;;;;;;;17.08;7.15;;;;;;;12.04;100.00;100383.38;5070615;28;20294;-60
2023/07/16 11:33:13;;;;;;;16.05;6.70;;;;;;;11.50;100.00;100286.69;5058681;28;20047;-59
2023/07/16 11:35:45;;;;;;;13.82;7.22;;;;;;;12.12;100.00;100390.22;5061027;28;20040;-62
2023/07/16 11:38:20;;;;;;;14.50;6.63;;;;;;;12.11;100.00;100388.50;5070320;28;20040;-60
2023/07/16 11:40:52;;;;;;;16.17;6.90;;;;;;;12.06;100.00;100391.22;5061048;28;20051;-61
2023/07/16 11:43:25;;;;;;;15.82;6.25;;;;;;;12.02;100.00;100398.25;5070456;28;20556;-61